Time;durP1;ratioP1;P1;durP2;ratioP2;P2;SDS_P1;SDS_P2;PMS_P1;PMS_P2;Temp;Humidity;BMP_temperature;BMP_pressure;BME280_temperature;BME280_humidity;BME280_pressure;Samples;Min_cycle;Max_cycle;Signal;HPM_P1;HPM_P2
2023/12/27 06:03:42;;;;;;;6.93;4.60;;;;;;;;;;4956099;29;21049;-77
2023/12/27 06:06:08;;;;;;;13.37;5.43;;;;;;;;;;4957685;28;20507;-77
2023/12/27 06:08:34;;;;;;;10.50;5.17;;;;;;;;;;4957727;28;20468;-77
2023/12/27 06:11:00;;;;;;;9.63;4.40;;;;;;;;;;4957376;28;20469;-76
2023/12/27 06:13:26;;;;;;;9.60;4.37;;;;;;;;;;4957707;28;20405;-77
2023/12/27 06:15:52;;;;;;;8.40;5.27;;;;;;;;;;4957541;28;20409;-76
2023/12/27 06:18:18;;;;;;;11.20;4.70;;;;;;;;;;4958912;28;20431;-75
2023/12/27 06:20:44;;;;;;;11.87;4.97;;;;;;;;;;4957205;28;21023;-75
2023/12/27 06:23:10;;;;;;;14.13;5.57;;;;;;;;;;4958495;28;20451;-75
2023/12/27 06:25:36;;;;;;;9.30;5.37;;;;;;;;;;4957202;29;20951;-75
2023/12/27 06:28:03;;;;;;;8.23;5.00;;;;;;;;;;4958198;28;20866;-75
2023/12/27 06:30:29;;;;;;;14.87;6.30;;;;;;;;;;4958388;28;20436;-76
2023/12/27 06:32:55;;;;;;;12.90;5.77;;;;;;;;;;4958282;28;20524;-75
2023/12/27 06:35:21;;;;;;;9.93;6.33;;;;;;;;;;4958303;28;20432;-75
2023/12/27 06:37:47;;;;;;;10.67;6.10;;;;;;;;;;4971844;28;20432;-75
2023/12/27 06:40:13;;;;;;;14.73;6.50;;;;;;;;;;4969294;28;20424;-75
2023/12/27 06:42:39;;;;;;;11.37;6.87;;;;;;;;;;4968069;29;20817;-75
2023/12/27 06:45:05;;;;;;;13.57;6.27;;;;;;;;;;4961053;28;20556;-75
2023/12/27 06:47:31;;;;;;;15.07;7.03;;;;;;;;;;4957831;28;20831;-75
2023/12/27 06:49:57;;;;;;;12.20;6.33;;;;;;;;;;4957800;28;20413;-75
2023/12/27 06:52:23;;;;;;;12.43;5.13;;;;;;;;;;4957746;28;20460;-75
2023/12/27 06:54:49;;;;;;;11.00;6.03;;;;;;;;;;4957900;28;20405;-75
2023/12/27 06:57:15;;;;;;;13.73;5.57;;;;;;;;;;4957630;28;20797;-75
2023/12/27 06:59:41;;;;;;;14.07;7.20;;;;;;;;;;4957528;28;20489;-75
2023/12/27 07:02:07;;;;;;;15.80;7.13;;;;;;;;;;4956885;28;20451;-75
2023/12/27 07:04:33;;;;;;;12.70;6.77;;;;;;;;;;4958265;28;20496;-75
2023/12/27 07:06:59;;;;;;;9.30;5.67;;;;;;;;;;4957429;28;20411;-75
2023/12/27 07:09:25;;;;;;;17.13;7.50;;;;;;;;;;4956477;29;20983;-75
2023/12/27 07:11:51;;;;;;;13.37;6.77;;;;;;;;;;4956219;28;20952;-75
2023/12/27 07:14:17;;;;;;;13.43;5.90;;;;;;;;;;4957253;28;20955;-75
2023/12/27 07:16:44;;;;;;;10.40;5.30;;;;;;;;;;4957172;28;20409;-75
2023/12/27 07:19:10;;;;;;;12.70;7.63;;;;;;;;;;4956996;28;20499;-75
2023/12/27 07:21:36;;;;;;;9.90;5.80;;;;;;;;;;4956084;29;20476;-75
2023/12/27 07:24:02;;;;;;;12.20;7.17;;;;;;;;;;4957655;28;20428;-75
2023/12/27 07:26:28;;;;;;;11.63;5.77;;;;;;;;;;4956860;28;20845;-75
2023/12/27 07:28:54;;;;;;;18.73;6.83;;;;;;;;;;4956608;28;20495;-75
2023/12/27 07:31:20;;;;;;;13.70;6.20;;;;;;;;;;4956502;28;20523;-75
2023/12/27 07:33:45;;;;;;;12.80;6.13;;;;;;;;;;4956269;28;20440;-75
2023/12/27 07:36:11;;;;;;;14.60;6.40;;;;;;;;;;4956557;28;20984;-75
2023/12/27 07:38:37;;;;;;;12.20;6.77;;;;;;;;;;4956326;28;20503;-75
2023/12/27 07:41:05;;;;;;;12.90;6.93;;;;;;;;;;4956531;28;20439;-75
2023/12/27 07:43:31;;;;;;;13.57;6.77;;;;;;;;;;4955045;28;20471;-75
2023/12/27 07:45:57;;;;;;;9.17;5.70;;;;;;;;;;4956336;28;20425;-74
2023/12/27 07:48:23;;;;;;;18.63;6.70;;;;;;;;;;4957946;28;20475;-75
2023/12/27 07:50:50;;;;;;;14.00;6.80;;;;;;;;;;4958606;28;20838;-76
2023/12/27 07:53:16;;;;;;;15.77;7.77;;;;;;;;;;4956420;28;20788;-76
2023/12/27 07:55:42;;;;;;;14.87;6.77;;;;;;;;;;4954463;29;20413;-75
2023/12/27 07:58:08;;;;;;;11.03;7.20;;;;;;;;;;4956290;28;20778;-75
2023/12/27 08:00:35;;;;;;;11.40;6.77;;;;;;;;;;4955898;28;20480;-75
2023/12/27 08:03:04;;;;;;;11.23;6.97;;;;;;;;;;4955637;28;20440;-75
2023/12/27 08:05:30;;;;;;;17.87;7.93;;;;;;;;;;4955789;28;20453;-75
2023/12/27 08:07:56;;;;;;;16.90;7.50;;;;;;;;;;4955774;29;20456;-75
2023/12/27 08:10:22;;;;;;;24.43;7.20;;;;;;;;;;4960415;28;20467;-75
2023/12/27 08:12:48;;;;;;;9.80;6.30;;;;;;;;;;4959693;28;20409;-74
2023/12/27 08:15:14;;;;;;;16.03;6.60;;;;;;;;;;4959138;28;20413;-74
2023/12/27 08:17:40;;;;;;;14.77;6.47;;;;;;;;;;4956387;29;20480;-74
2023/12/27 08:20:06;;;;;;;14.73;7.40;;;;;;;;;;4954680;29;20425;-74
2023/12/27 08:22:32;;;;;;;12.27;6.33;;;;;;;;;;4955402;28;20486;-75
2023/12/27 08:24:58;;;;;;;10.27;6.23;;;;;;;;;;4955653;28;20463;-75
2023/12/27 08:27:24;;;;;;;15.03;6.47;;;;;;;;;;4958085;28;21014;-75
2023/12/27 08:29:49;;;;;;;18.73;7.03;;;;;;;;;;4962321;29;20970;-74
2023/12/27 08:32:15;;;;;;;10.40;6.00;;;;;;;;;;4955665;28;20954;-75
2023/12/27 08:34:41;;;;;;;16.83;8.07;;;;;;;;;;4955487;28;20976;-75
2023/12/27 08:37:07;;;;;;;10.50;5.83;;;;;;;;;;4955463;28;20413;-75
2023/12/27 08:39:33;;;;;;;14.77;7.80;;;;;;;;;;4954140;28;20420;-75
2023/12/27 08:42:01;;;;;;;13.40;6.40;;;;;;;;;;4955853;28;20464;-75
2023/12/27 08:44:27;;;;;;;9.53;5.27;;;;;;;;;;4972724;28;20433;-74
2023/12/27 08:46:53;;;;;;;12.23;5.50;;;;;;;;;;4976079;28;20506;-74
2023/12/27 08:49:18;;;;;;;12.03;6.63;;;;;;;;;;4970330;29;20809;-74
2023/12/27 08:51:44;;;;;;;13.53;6.50;;;;;;;;;;4955712;28;20936;-75
2023/12/27 08:54:11;;;;;;;16.03;6.50;;;;;;;;;;4953950;29;20924;-75
2023/12/27 08:56:37;;;;;;;12.80;6.67;;;;;;;;;;4955297;28;20974;-75
2023/12/27 08:59:03;;;;;;;19.87;6.67;;;;;;;;;;4953800;29;20425;-74
2023/12/27 09:01:31;;;;;;;9.70;6.07;;;;;;;;;;4954812;28;20443;-75
2023/12/27 09:03:57;;;;;;;11.77;5.67;;;;;;;;;;4953346;29;20483;-75
2023/12/27 09:06:23;;;;;;;12.60;5.57;;;;;;;;;;4954547;28;20416;-75
2023/12/27 09:08:49;;;;;;;8.57;5.47;;;;;;;;;;4954595;28;20559;-75
2023/12/27 09:11:18;;;;;;;9.53;4.90;;;;;;;;;;4954570;28;20432;-74
2023/12/27 09:13:44;;;;;;;10.80;5.40;;;;;;;;;;4953134;28;20420;-74
2023/12/27 09:16:10;;;;;;;8.17;5.00;;;;;;;;;;4954569;28;20966;-75
2023/12/27 09:18:36;;;;;;;9.40;5.03;;;;;;;;;;4955421;28;20416;-74
2023/12/27 09:21:02;;;;;;;17.40;4.87;;;;;;;;;;4956916;28;20848;-75
2023/12/27 09:23:28;;;;;;;7.20;4.67;;;;;;;;;;4957851;28;20495;-74
2023/12/27 09:25:54;;;;;;;8.33;4.70;;;;;;;;;;4956964;28;20496;-75
2023/12/27 09:28:22;;;;;;;6.20;4.00;;;;;;;;;;4954924;28;20487;-74
2023/12/27 09:30:48;;;;;;;12.37;4.83;;;;;;;;;;4955323;29;20844;-74
2023/12/27 09:33:14;;;;;;;8.90;4.43;;;;;;;;;;4956058;28;20901;-74
2023/12/27 09:35:40;;;;;;;9.10;4.13;;;;;;;;;;4954867;29;20543;-75
2023/12/27 09:38:06;;;;;;;9.07;4.60;;;;;;;;;;4954589;29;20433;-75
2023/12/27 09:40:32;;;;;;;5.13;3.60;;;;;;;;;;4956606;28;20503;-74
2023/12/27 09:42:59;;;;;;;8.77;4.57;;;;;;;;;;4955603;28;20507;-74
2023/12/27 09:45:25;;;;;;;8.90;4.93;;;;;;;;;;4955416;28;20421;-74
2023/12/27 09:47:53;;;;;;;12.40;4.43;;;;;;;;;;4953423;28;20515;-74
2023/12/27 09:50:20;;;;;;;5.30;4.60;;;;;;;;;;4954596;28;20417;-74
2023/12/27 09:52:46;;;;;;;10.20;3.80;;;;;;;;;;4956111;28;20413;-74
2023/12/27 09:55:12;;;;;;;12.60;4.27;;;;;;;;;;4954529;28;20538;-75
2023/12/27 09:57:39;;;;;;;8.63;4.20;;;;;;;;;;4952780;29;20453;-74
2023/12/27 10:00:07;;;;;;;7.93;4.90;;;;;;;;;;4954524;28;20421;-75
2023/12/27 10:02:34;;;;;;;9.20;4.53;;;;;;;;;;4953139;29;20432;-74
2023/12/27 10:05:10;;;;;;;8.50;4.50;;;;;;;;;;4962871;28;20432;-74
2023/12/27 10:07:39;;;;;;;9.17;4.53;;;;;;;;;;4969458;28;20986;-74
2023/12/27 10:10:05;;;;;;;9.17;4.83;;;;;;;;;;4968192;29;20421;-75
2023/12/27 10:12:31;;;;;;;6.97;4.37;;;;;;;;;;4968062;29;20479;-74
2023/12/27 10:14:57;;;;;;;16.80;5.40;;;;;;;;;;4954862;29;20428;-75
2023/12/27 10:17:23;;;;;;;8.23;4.30;;;;;;;;;;4954819;28;20404;-74
2023/12/27 10:19:49;;;;;;;6.73;4.30;;;;;;;;;;4957997;28;20521;-75
2023/12/27 10:22:15;;;;;;;13.10;4.27;;;;;;;;;;4957761;28;20464;-74
2023/12/27 10:24:41;;;;;;;14.40;5.20;;;;;;;;;;4957842;28;20436;-75
2023/12/27 10:27:08;;;;;;;12.57;5.30;;;;;;;;;;4973774;28;20476;-75
2023/12/27 10:29:34;;;;;;;11.60;4.13;;;;;;;;;;4977726;28;20456;-74
2023/12/27 10:32:02;;;;;;;10.73;4.67;;;;;;;;;;4978100;28;20488;-74
2023/12/27 10:34:28;;;;;;;10.60;4.70;;;;;;;;;;4977706;28;20439;-74
2023/12/27 10:36:55;;;;;;;7.53;4.70;;;;;;;;;;4958235;29;20424;-74
2023/12/27 10:39:21;;;;;;;12.77;5.00;;;;;;;;;;4970436;28;20440;-75
2023/12/27 10:41:47;;;;;;;9.87;4.90;;;;;;;;;;4959546;28;20448;-75
2023/12/27 10:44:17;;;;;;;11.73;6.57;;;;;;;;;;4955422;28;20421;-76
2023/12/27 10:46:43;;;;;;;9.17;5.07;;;;;;;;;;4958558;28;20431;-75
2023/12/27 10:49:11;;;;;;;6.90;4.60;;;;;;;;;;4956932;28;20464;-74
2023/12/27 10:51:38;;;;;;;12.63;4.80;;;;;;;;;;4957771;28;20444;-74
2023/12/27 10:54:05;;;;;;;15.43;5.13;;;;;;;;;;4957058;29;20480;-75
2023/12/27 10:56:41;;;;;;;8.23;4.67;;;;;;;;;;4956676;29;20700;-74
2023/12/27 10:59:07;;;;;;;9.13;4.60;;;;;;;;;;4956547;29;20428;-75
2023/12/27 11:01:34;;;;;;;8.80;4.27;;;;;;;;;;4960182;28;20440;-75
2023/12/27 11:04:01;;;;;;;8.63;4.70;;;;;;;;;;4961346;28;20420;-75
2023/12/27 11:06:30;;;;;;;14.77;5.00;;;;;;;;;;4957349;28;20416;-75
2023/12/27 11:08:56;;;;;;;11.93;4.53;;;;;;;;;;4962736;28;20511;-75
2023/12/27 11:11:24;;;;;;;10.80;4.20;;;;;;;;;;4969564;29;20433;-75
2023/12/27 11:13:50;;;;;;;16.50;3.77;;;;;;;;;;4978220;28;20416;-74
2023/12/27 11:16:17;;;;;;;10.30;4.80;;;;;;;;;;4979378;28;20424;-74
2023/12/27 11:18:44;;;;;;;8.00;4.10;;;;;;;;;;4977812;28;20404;-75
2023/12/27 11:21:10;;;;;;;10.00;4.13;;;;;;;;;;4979228;28;20432;-75
2023/12/27 11:23:36;;;;;;;6.73;3.93;;;;;;;;;;4972847;29;20436;-74
2023/12/27 11:26:04;;;;;;;7.40;4.80;;;;;;;;;;4976135;28;20436;-75
2023/12/27 11:28:33;;;;;;;6.10;4.30;;;;;;;;;;4965022;28;20464;-75
2023/12/27 11:31:00;;;;;;;4.20;3.67;;;;;;;;;;4962516;28;20800;-75
2023/12/27 11:33:26;;;;;;;7.77;4.63;;;;;;;;;;4959976;28;20444;-74
2023/12/27 11:35:52;;;;;;;9.23;4.10;;;;;;;;;;4960003;28;20448;-75
2023/12/27 11:38:20;;;;;;;5.90;3.70;;;;;;;;;;4957383;29;20461;-75
2023/12/27 11:40:51;;;;;;;7.27;3.93;;;;;;;;;;4957087;28;20519;-75
2023/12/27 11:43:21;;;;;;;6.23;4.30;;;;;;;;;;4956255;28;20768;-75
2023/12/27 11:46:00;;;;;;;9.67;4.40;;;;;;;;;;4956142;28;20427;-75
2023/12/27 11:48:27;;;;;;;7.40;3.57;;;;;;;;;;4955011;29;20468;-75
2023/12/27 11:50:57;;;;;;;7.90;3.73;;;;;;;;;;4956315;28;20472;-74
2023/12/27 11:53:24;;;;;;;7.10;3.60;;;;;;;;;;4955644;28;20408;-75
2023/12/27 11:55:51;;;;;;;12.23;3.93;;;;;;;;;;4954414;28;20413;-75
2023/12/27 11:58:29;;;;;;;9.87;3.90;;;;;;;;;;4955432;28;20420;-75
2023/12/27 12:00:55;;;;;;;14.53;3.53;;;;;;;;;;4956246;28;20769;-75
2023/12/27 12:03:25;;;;;;;13.03;3.70;;;;;;;;;;4955630;28;20432;-75
2023/12/27 12:06:11;;;;;;;11.73;3.87;;;;;;;;;;4955497;28;20420;-74
2023/12/27 12:08:42;;;;;;;5.00;3.13;;;;;;;;;;4956028;28;20898;-75
2023/12/27 12:11:12;;;;;;;7.60;3.70;;;;;;;;;;4964196;28;20441;-75
2023/12/27 12:13:39;;;;;;;6.50;4.00;;;;;;;;;;4965895;28;20507;-74
2023/12/27 12:16:08;;;;;;;5.30;3.10;;;;;;;;;;4955868;28;20413;-74
2023/12/27 12:18:35;;;;;;;6.37;3.37;;;;;;;;;;4955290;28;20818;-78
2023/12/27 12:21:01;;;;;;;3.90;2.70;;;;;;;;;;4954986;28;20507;-76
2023/12/27 12:23:30;;;;;;;6.37;2.87;;;;;;;;;;4953489;29;20420;-77
2023/12/27 12:26:00;;;;;;;3.53;3.00;;;;;;;;;;4954899;28;20849;-78
2023/12/27 12:28:27;;;;;;;15.77;3.83;;;;;;;;;;4953670;29;20460;-76
2023/12/27 12:30:53;;;;;;;6.77;3.17;;;;;;;;;;4955759;28;20511;-76
2023/12/27 12:33:19;;;;;;;6.63;3.27;;;;;;;;;;4955050;28;20447;-76
2023/12/27 12:35:45;;;;;;;6.77;3.07;;;;;;;;;;4954769;28;20413;-77
2023/12/27 12:38:11;;;;;;;4.20;2.70;;;;;;;;;;4954738;28;20507;-77
2023/12/27 12:40:37;;;;;;;6.20;3.20;;;;;;;;;;4953497;29;20460;-77
2023/12/27 12:43:04;;;;;;;5.07;3.00;;;;;;;;;;4954531;28;20427;-77
2023/12/27 12:45:32;;;;;;;7.60;3.03;;;;;;;;;;4954665;28;20499;-77
2023/12/27 12:47:58;;;;;;;10.90;3.27;;;;;;;;;;4953149;29;20545;-77
2023/12/27 12:50:24;;;;;;;5.33;3.07;;;;;;;;;;4953101;29;20828;-77
2023/12/27 12:52:50;;;;;;;5.03;2.83;;;;;;;;;;4954522;28;20432;-76
2023/12/27 12:55:19;;;;;;;6.53;3.27;;;;;;;;;;4954457;28;20445;-77
2023/12/27 12:57:45;;;;;;;3.70;2.73;;;;;;;;;;4954658;28;21008;-78
2023/12/27 13:00:11;;;;;;;7.33;3.10;;;;;;;;;;4954356;28;20452;-78
2023/12/27 13:02:38;;;;;;;7.80;3.40;;;;;;;;;;4954244;28;20436;-77
2023/12/27 13:05:04;;;;;;;5.50;2.63;;;;;;;;;;4955681;29;20511;-76
2023/12/27 13:07:30;;;;;;;5.67;2.60;;;;;;;;;;4954309;28;20416;-76
2023/12/27 13:10:00;;;;;;;5.70;2.60;;;;;;;;;;4953611;28;20786;-76
2023/12/27 13:12:27;;;;;;;7.03;3.10;;;;;;;;;;4954164;28;20869;-76
2023/12/27 13:14:53;;;;;;;7.73;3.17;;;;;;;;;;4953346;29;20427;-76
2023/12/27 13:17:19;;;;;;;13.20;3.90;;;;;;;;;;4954445;28;20405;-76
2023/12/27 13:19:45;;;;;;;9.50;3.27;;;;;;;;;;4954147;28;20471;-76
2023/12/27 13:22:11;;;;;;;6.80;3.10;;;;;;;;;;4954055;28;20437;-77
2023/12/27 13:24:38;;;;;;;11.60;3.00;;;;;;;;;;4967358;28;20408;-76
2023/12/27 13:27:05;;;;;;;9.37;2.80;;;;;;;;;;4973975;28;20436;-79
2023/12/27 13:29:31;;;;;;;3.80;2.87;;;;;;;;;;4971107;28;20456;-77
2023/12/27 13:31:57;;;;;;;7.87;4.00;;;;;;;;;;4955244;28;20439;-76
2023/12/27 13:34:23;;;;;;;6.03;2.90;;;;;;;;;;4954431;28;20491;-76
2023/12/27 13:36:49;;;;;;;6.30;2.97;;;;;;;;;;4954666;28;20405;-76
2023/12/27 13:39:15;;;;;;;6.87;4.20;;;;;;;;;;4954425;28;20500;-77
2023/12/27 13:41:41;;;;;;;5.97;3.10;;;;;;;;;;4953945;28;20471;-77
2023/12/27 13:44:07;;;;;;;8.83;4.10;;;;;;;;;;4952645;28;20424;-77
2023/12/27 13:46:33;;;;;;;5.90;3.73;;;;;;;;;;4952489;29;20729;-77
2023/12/27 13:48:59;;;;;;;10.87;4.50;;;;;;;;;;4953731;28;20456;-76
2023/12/27 13:51:26;;;;;;;4.50;3.00;;;;;;;;;;4953949;28;20994;-76
2023/12/27 13:53:52;;;;;;;6.13;3.10;;;;;;;;;;4952622;28;20416;-81
2023/12/27 13:56:19;;;;;;;6.73;3.20;;;;;;;;;;4952409;28;20428;-79
2023/12/27 13:58:46;;;;;;;7.43;3.67;;;;;;;;;;4952360;29;20940;-77
2023/12/27 14:01:12;;;;;;;5.30;3.50;;;;;;;;;;4953713;28;20437;-78
2023/12/27 14:03:38;;;;;;;9.50;3.80;;;;;;;;;;4956869;28;20437;-78
2023/12/27 14:06:05;;;;;;;6.77;3.93;;;;;;;;;;4952402;28;20544;-78
2023/12/27 14:08:31;;;;;;;11.70;4.47;;;;;;;;;;4953678;28;20456;-76
2023/12/27 14:10:57;;;;;;;9.37;3.40;;;;;;;;;;4953507;28;20432;-77
2023/12/27 14:13:24;;;;;;;11.23;3.13;;;;;;;;;;4953262;28;20416;-76
2023/12/27 14:15:50;;;;;;;14.47;4.10;;;;;;;;;;4953201;28;20798;-77
2023/12/27 14:18:17;;;;;;;6.17;3.47;;;;;;;;;;4953663;28;20409;-78
2023/12/27 14:20:43;;;;;;;7.10;3.43;;;;;;;;;;4955880;28;20956;-77
2023/12/27 14:23:09;;;;;;;10.10;3.60;;;;;;;;;;4970135;28;20439;-76
2023/12/27 14:25:35;;;;;;;8.10;4.10;;;;;;;;;;4964326;29;20424;-79
2023/12/27 14:28:06;;;;;;;6.20;3.90;;;;;;;;;;4960887;28;20470;-75
2023/12/27 14:30:32;;;;;;;12.77;4.47;;;;;;;;;;4957092;28;20515;-76
2023/12/27 14:32:58;;;;;;;9.53;4.73;;;;;;;;;;4957028;28;20492;-76
2023/12/27 14:35:24;;;;;;;9.77;4.00;;;;;;;;;;4956918;28;20413;-75
2023/12/27 14:37:50;;;;;;;9.53;4.67;;;;;;;;;;4956621;28;20420;-76
2023/12/27 14:40:16;;;;;;;13.40;4.77;;;;;;;;;;4956524;28;20793;-76
2023/12/27 14:42:42;;;;;;;8.67;4.67;;;;;;;;;;4956524;28;20869;-76
2023/12/27 14:45:12;;;;;;;9.83;4.33;;;;;;;;;;4955301;28;20412;-75
2023/12/27 14:47:38;;;;;;;9.10;4.13;;;;;;;;;;4956496;28;20483;-76
2023/12/27 14:50:05;;;;;;;6.97;4.30;;;;;;;;;;4955402;29;20946;-76
2023/12/27 14:52:31;;;;;;;7.17;5.20;;;;;;;;;;4956527;28;20800;-77
2023/12/27 14:54:57;;;;;;;9.87;4.90;;;;;;;;;;4956740;28;20417;-77
2023/12/27 14:57:25;;;;;;;15.87;4.93;;;;;;;;;;4956527;28;20525;-77
2023/12/27 14:59:51;;;;;;;10.07;4.97;;;;;;;;;;4956369;28;20524;-76
2023/12/27 15:02:17;;;;;;;9.93;4.50;;;;;;;;;;4955999;28;20536;-77
2023/12/27 15:04:44;;;;;;;13.57;4.63;;;;;;;;;;4956406;28;20416;-78
2023/12/27 15:07:10;;;;;;;8.03;4.50;;;;;;;;;;4956042;28;20405;-78
2023/12/27 15:09:36;;;;;;;9.27;4.50;;;;;;;;;;4956113;28;20464;-76
2023/12/27 15:12:03;;;;;;;10.10;4.37;;;;;;;;;;4956072;28;20814;-76
2023/12/27 15:14:28;;;;;;;6.50;4.80;;;;;;;;;;4956107;28;20468;-76
2023/12/27 15:16:54;;;;;;;9.57;4.30;;;;;;;;;;4956007;28;20440;-76
2023/12/27 15:19:20;;;;;;;5.87;4.00;;;;;;;;;;4956042;28;20417;-76
2023/12/27 15:21:46;;;;;;;13.87;5.87;;;;;;;;;;4954730;28;20484;-76
2023/12/27 15:24:13;;;;;;;7.20;4.50;;;;;;;;;;4956000;28;20408;-76
2023/12/27 15:26:39;;;;;;;8.20;4.80;;;;;;;;;;4956151;28;20915;-77
2023/12/27 15:29:05;;;;;;;9.20;5.20;;;;;;;;;;4955899;28;20893;-78
2023/12/27 15:31:32;;;;;;;11.83;5.30;;;;;;;;;;4954686;28;20440;-77
2023/12/27 15:33:58;;;;;;;11.70;4.90;;;;;;;;;;4956254;28;20416;-78
2023/12/27 15:36:25;;;;;;;14.03;5.23;;;;;;;;;;4955674;28;20420;-78
2023/12/27 15:38:55;;;;;;;16.57;5.93;;;;;;;;;;4954623;28;20456;-78
2023/12/27 15:41:24;;;;;;;8.03;4.83;;;;;;;;;;4955638;28;20956;-78
2023/12/27 15:43:50;;;;;;;14.33;6.23;;;;;;;;;;4955375;28;20435;-79
2023/12/27 15:46:21;;;;;;;18.70;6.43;;;;;;;;;;4956098;28;20457;-76
2023/12/27 15:48:47;;;;;;;10.00;5.60;;;;;;;;;;4955296;28;20452;-77
2023/12/27 15:51:32;;;;;;;8.33;5.70;;;;;;;;;;4955446;28;20912;-76
2023/12/27 15:53:59;;;;;;;21.60;5.90;;;;;;;;;;4955360;28;20780;-79
2023/12/27 15:56:28;;;;;;;21.43;7.07;;;;;;;;;;4955346;28;20409;-77
2023/12/27 15:58:55;;;;;;;17.40;6.70;;;;;;;;;;4955725;28;20923;-78
2023/12/27 16:01:22;;;;;;;15.93;6.80;;;;;;;;;;4957024;28;20443;-76
2023/12/27 16:03:51;;;;;;;12.80;5.60;;;;;;;;;;4955810;29;20429;-79
2023/12/27 16:06:19;;;;;;;10.83;5.33;;;;;;;;;;4957287;28;20409;-77
2023/12/27 16:08:45;;;;;;;12.77;5.83;;;;;;;;;;4955629;28;20468;-77
2023/12/27 16:11:11;;;;;;;16.73;6.30;;;;;;;;;;4954040;29;20532;-77
2023/12/27 16:13:37;;;;;;;9.87;5.50;;;;;;;;;;4954969;28;20408;-78
2023/12/27 16:16:07;;;;;;;8.97;5.87;;;;;;;;;;4953829;29;20417;-78
2023/12/27 16:18:33;;;;;;;12.87;7.27;;;;;;;;;;4955035;28;20421;-77
2023/12/27 16:21:00;;;;;;;14.60;8.73;;;;;;;;;;4954960;28;20867;-77
2023/12/27 16:23:26;;;;;;;17.93;6.87;;;;;;;;;;4954865;28;20499;-77
2023/12/27 16:25:52;;;;;;;24.43;6.50;;;;;;;;;;4949391;28;20536;-78
2023/12/27 16:28:18;;;;;;;10.67;5.93;;;;;;;;;;4943786;28;20469;-77
2023/12/27 16:30:44;;;;;;;16.80;6.60;;;;;;;;;;4944127;28;20464;-78
2023/12/27 16:33:10;;;;;;;12.40;5.67;;;;;;;;;;4953548;28;20495;-77
2023/12/27 16:35:36;;;;;;;16.13;6.40;;;;;;;;;;4954222;28;20447;-79
2023/12/27 16:38:02;;;;;;;12.77;6.57;;;;;;;;;;4953378;28;20926;-79
2023/12/27 16:40:28;;;;;;;11.30;5.90;;;;;;;;;;4954825;29;20409;-77
2023/12/27 16:42:55;;;;;;;18.23;7.10;;;;;;;;;;4954118;28;20762;-76
2023/12/27 16:45:26;;;;;;;10.37;6.23;;;;;;;;;;4954340;29;20935;-80
2023/12/27 16:47:57;;;;;;;14.23;7.10;;;;;;;;;;4953121;29;20836;-77
2023/12/27 16:50:23;;;;;;;9.83;5.83;;;;;;;;;;4953170;28;20419;-78
2023/12/27 16:52:49;;;;;;;14.27;7.10;;;;;;;;;;4954069;28;20408;-77
2023/12/27 16:55:15;;;;;;;14.47;8.00;;;;;;;;;;4954225;29;20920;-77
2023/12/27 16:57:42;;;;;;;10.70;5.87;;;;;;;;;;4954819;28;20413;-78
2023/12/27 17:00:08;;;;;;;17.83;7.17;;;;;;;;;;4954163;29;20498;-77
2023/12/27 17:02:34;;;;;;;15.03;7.10;;;;;;;;;;4953994;28;20812;-77
2023/12/27 17:05:00;;;;;;;17.70;6.17;;;;;;;;;;4954125;29;20495;-76
2023/12/27 17:07:26;;;;;;;16.63;6.80;;;;;;;;;;4954286;28;20487;-76
2023/12/27 17:09:52;;;;;;;18.07;7.03;;;;;;;;;;4952983;29;20496;-76
2023/12/27 17:12:18;;;;;;;12.23;6.07;;;;;;;;;;4953872;29;20453;-75
2023/12/27 17:14:45;;;;;;;14.93;7.73;;;;;;;;;;4954264;28;20441;-76
2023/12/27 17:17:10;;;;;;;14.03;6.80;;;;;;;;;;4954052;29;20421;-78
2023/12/27 17:19:36;;;;;;;16.40;7.17;;;;;;;;;;4954094;28;20918;-77
2023/12/27 17:22:02;;;;;;;13.33;6.33;;;;;;;;;;4952338;29;20495;-79
2023/12/27 17:24:28;;;;;;;12.43;7.13;;;;;;;;;;4953907;29;20459;-78
2023/12/27 17:26:54;;;;;;;16.60;8.43;;;;;;;;;;4952749;29;20469;-77
2023/12/27 17:29:21;;;;;;;19.40;9.00;;;;;;;;;;4954238;28;20468;-78
2023/12/27 17:31:48;;;;;;;13.37;7.90;;;;;;;;;;4953785;28;20924;-77
2023/12/27 17:34:14;;;;;;;13.20;7.93;;;;;;;;;;4954029;28;20412;-77
2023/12/27 17:36:40;;;;;;;17.77;7.83;;;;;;;;;;4952577;29;20416;-78
2023/12/27 17:39:07;;;;;;;15.07;8.37;;;;;;;;;;4953898;28;20413;-77
2023/12/27 17:41:33;;;;;;;16.20;7.33;;;;;;;;;;4953588;28;20524;-77
2023/12/27 17:43:58;;;;;;;12.47;6.97;;;;;;;;;;4953704;28;20512;-77
2023/12/27 17:46:24;;;;;;;20.30;8.80;;;;;;;;;;4953682;29;20417;-77
2023/12/27 17:48:50;;;;;;;18.63;9.00;;;;;;;;;;4954288;29;20471;-78
2023/12/27 17:51:16;;;;;;;22.10;8.27;;;;;;;;;;4953247;28;20429;-78
2023/12/27 17:53:42;;;;;;;14.63;8.47;;;;;;;;;;4953728;28;20412;-78
2023/12/27 17:56:08;;;;;;;18.63;9.10;;;;;;;;;;4956982;28;20412;-77
2023/12/27 17:58:34;;;;;;;15.53;8.80;;;;;;;;;;4957066;28;20429;-78
2023/12/27 18:01:00;;;;;;;20.30;8.73;;;;;;;;;;4959233;28;20444;-78
2023/12/27 18:03:26;;;;;;;18.93;8.50;;;;;;;;;;4962268;28;20478;-78
2023/12/27 18:05:54;;;;;;;19.83;8.33;;;;;;;;;;4974919;28;20435;-78
2023/12/27 18:08:20;;;;;;;19.43;9.77;;;;;;;;;;4967094;28;20523;-78
2023/12/27 18:10:46;;;;;;;23.43;10.53;;;;;;;;;;4965895;28;20464;-77
2023/12/27 18:13:12;;;;;;;25.73;11.57;;;;;;;;;;4958034;28;20411;-77
2023/12/27 18:15:38;;;;;;;13.97;8.67;;;;;;;;;;4957424;28;20475;-76
2023/12/27 18:18:04;;;;;;;16.97;8.47;;;;;;;;;;4956197;29;20413;-79
2023/12/27 18:20:30;;;;;;;16.37;8.93;;;;;;;;;;4956428;28;20474;-77
2023/12/27 18:22:56;;;;;;;17.50;9.03;;;;;;;;;;4956942;28;20444;-78
2023/12/27 18:25:22;;;;;;;16.30;8.23;;;;;;;;;;4957225;28;20415;-79
2023/12/27 18:27:48;;;;;;;20.60;10.90;;;;;;;;;;4957151;28;20545;-76
2023/12/27 18:30:15;;;;;;;20.40;9.37;;;;;;;;;;4956716;28;20826;-78
2023/12/27 18:32:41;;;;;;;18.10;10.37;;;;;;;;;;4957034;28;20416;-79
2023/12/27 18:35:10;;;;;;;24.70;9.80;;;;;;;;;;4957520;28;20439;-76
2023/12/27 18:37:36;;;;;;;25.03;9.60;;;;;;;;;;4957272;28;21069;-76
2023/12/27 18:40:03;;;;;;;21.00;9.00;;;;;;;;;;4958676;28;20424;-76
2023/12/27 18:42:29;;;;;;;21.40;10.27;;;;;;;;;;4958272;29;20793;-79
2023/12/27 18:44:55;;;;;;;22.17;10.00;;;;;;;;;;4960322;28;20428;-79
2023/12/27 18:47:21;;;;;;;17.30;9.67;;;;;;;;;;4963476;28;20959;-79
2023/12/27 18:49:47;;;;;;;19.13;10.40;;;;;;;;;;4961917;28;20476;-76
2023/12/27 18:52:13;;;;;;;23.67;11.00;;;;;;;;;;4965908;28;20433;-76
2023/12/27 18:54:39;;;;;;;17.23;9.10;;;;;;;;;;4961995;28;20475;-76
2023/12/27 18:57:05;;;;;;;19.80;10.00;;;;;;;;;;4966053;28;20421;-77
2023/12/27 18:59:31;;;;;;;19.93;10.50;;;;;;;;;;4965194;28;20421;-76
2023/12/27 19:01:59;;;;;;;19.20;9.60;;;;;;;;;;4956182;28;20464;-77
2023/12/27 19:04:24;;;;;;;21.83;9.73;;;;;;;;;;4957407;28;20405;-73
2023/12/27 19:06:50;;;;;;;19.87;9.27;;;;;;;;;;4956716;28;20423;-74
2023/12/27 19:09:17;;;;;;;34.67;11.10;;;;;;;;;;4955106;29;20627;-78
2023/12/27 19:11:43;;;;;;;29.03;9.50;;;;;;;;;;4956783;28;20920;-78
2023/12/27 19:14:09;;;;;;;20.43;10.67;;;;;;;;;;4955684;29;20420;-78
2023/12/27 19:16:35;;;;;;;29.83;8.97;;;;;;;;;;4956496;28;20892;-78
2023/12/27 19:19:01;;;;;;;19.27;9.70;;;;;;;;;;4955292;29;20421;-78
2023/12/27 19:21:27;;;;;;;22.17;9.77;;;;;;;;;;4956248;28;20436;-78
2023/12/27 19:23:56;;;;;;;21.97;9.67;;;;;;;;;;4954716;28;20431;-77
2023/12/27 19:26:23;;;;;;;16.00;9.77;;;;;;;;;;4956303;28;20448;-78
2023/12/27 19:28:49;;;;;;;18.20;9.43;;;;;;;;;;4955314;29;20569;-81
2023/12/27 19:31:16;;;;;;;17.80;9.87;;;;;;;;;;4955876;28;20445;-79
2023/12/27 19:33:42;;;;;;;19.07;11.27;;;;;;;;;;4955695;28;20405;-78
2023/12/27 19:36:08;;;;;;;16.70;9.40;;;;;;;;;;4955876;28;20959;-78
2023/12/27 19:38:35;;;;;;;20.93;10.00;;;;;;;;;;4956020;28;20444;-78
2023/12/27 19:41:04;;;;;;;20.90;10.10;;;;;;;;;;4955580;28;20441;-78
2023/12/27 19:43:31;;;;;;;18.00;9.73;;;;;;;;;;4955772;28;20412;-77
2023/12/27 19:45:57;;;;;;;23.30;10.87;;;;;;;;;;4954372;28;20925;-78
2023/12/27 19:48:24;;;;;;;19.37;9.67;;;;;;;;;;4955967;28;20544;-78
2023/12/27 19:50:50;;;;;;;20.70;9.43;;;;;;;;;;4955905;28;20520;-79
2023/12/27 19:53:16;;;;;;;23.60;11.13;;;;;;;;;;4955384;28;20416;-79
2023/12/27 19:55:42;;;;;;;22.33;10.40;;;;;;;;;;4954204;28;20913;-79
2023/12/27 19:58:08;;;;;;;21.20;9.53;;;;;;;;;;4955416;28;20425;-79
2023/12/27 20:00:34;;;;;;;16.20;10.10;;;;;;;;;;4954020;28;20531;-79
2023/12/27 20:03:00;;;;;;;19.57;9.80;;;;;;;;;;4955106;28;20448;-80
2023/12/27 20:05:26;;;;;;;21.00;11.03;;;;;;;;;;4955507;28;20452;-80
2023/12/27 20:07:52;;;;;;;21.27;9.80;;;;;;;;;;4955455;28;20971;-80
2023/12/27 20:10:18;;;;;;;22.10;9.90;;;;;;;;;;4955310;28;20423;-80
2023/12/27 20:12:44;;;;;;;21.13;10.13;;;;;;;;;;4955229;28;20420;-80
2023/12/27 20:15:10;;;;;;;19.73;9.40;;;;;;;;;;4953836;28;20504;-78
2023/12/27 20:17:36;;;;;;;26.63;11.07;;;;;;;;;;4954844;28;20409;-78
2023/12/27 20:20:02;;;;;;;15.40;9.00;;;;;;;;;;4954218;28;21004;-78
2023/12/27 20:22:28;;;;;;;21.20;9.10;;;;;;;;;;4954848;28;20440;-78
2023/12/27 20:24:54;;;;;;;19.43;9.60;;;;;;;;;;4955131;28;20417;-78
2023/12/27 20:27:20;;;;;;;16.93;9.70;;;;;;;;;;4955069;28;20428;-78
2023/12/27 20:29:46;;;;;;;18.83;9.03;;;;;;;;;;4953672;29;20464;-78
2023/12/27 20:32:14;;;;;;;18.47;8.23;;;;;;;;;;4954615;28;20424;-79